Jacumba, CA (91934)

7:09 AM PST on March 06, 2015 (GMT -0800)
J-town | Change Station
CLOSE
Current Station
Personal Weather Station
Location: Jacumba, CA
Elevation: 2799 ft
Nearby Weather Stations

Elev 2799 ft 32.62 °N, 116.19 °W | Updated 7 minutes ago

Clear
Clear
54.5 °F
Feels Like 54.5 °F
N
6.0
Wind Variable Wind from NE
Gusts 9.2 mph

Today
High -- | Low -- °F
--% Chance of Precip.
Yesterday
High -- | Low -- °F
Precip. -- in
6:06 AM 5:45 PM
Full, 99% visible
Pressure 30.04 in
Visibility -9999.0 miles
Clouds
Dew Point 16 °F
Humidity 22%
Rainfall in
Snow Depth Not available.
UV 0.0 out of 12
Pollen 8.90 out of 12
Air Quality Not available.
Flu Activity Not available.
METAR KCZZ 061452Z AUTO 05020G26KT 14/M12 A3008 RMK AO1 PK WND 06026/1448 SLP170 T01391122 53001

More Conditions Fewer Conditions

Pressure 30.04 in
Visibility -9999.0 miles
Clouds
Dew Point 16 °F
Humidity 22%
Rainfall in
Snow Depth Not available.
UV 0.0 out of 12
Pollen 8.90 out of 12
Air Quality Not available.
Flu Activity Not available.
METAR KCZZ 061452Z AUTO 05020G26KT 14/M12 A3008 RMK AO1 PK WND 06026/1448 SLP170 T01391122 53001

More Conditions Fewer Conditions

10-Day Weather Forecast

Almanac

Astronomy

Mar. 06, 2015 Rise Set
Actual Time
Civil Twilight
Nautical Twilight
Astronomical Twilight
Moon
Length of Visible Light
Length of Day
Tomorrow will be .
, % of the Moon is Illuminated

Today's Extremes

State Highs State Lows

Community

WunderPhotos

Upload Photos

1,803,296 photos uploaded!

WunderBlogs® & News

Nearby

Air Quality

  Air Quality AQ Index Pollutant
Not available.

Snow Depth

Station Depth Elevation

Earthquake Activity

City Distance Mag. Time & Date
Minimum magnitude displayed is 2.5.

Coastal Water Temperatures

Place Temperature

Nearby Weather Stations